Meteoliendo - El tiempo en Liendo - Informes METAR de Aeropuertos cercanos

Informes METAR de Aeropuertos cercanos

 

LEXJ - Santander
Actualización: 19/08/2018 22:00
Despejado
Despejado
 Viento del E
Viento: E 6 km/h
Temperatura: 21°C
Rocío: 19°C
Humedad: 88%
Barómetro: 1024 hPa
Resumen: Despejado
Visibility: greater than 10 km
2018/08/19 20:00 LEXJ 192000Z 08003KT 040V110 CAVOK 21/19 Q1024
LEAS - Asturias/Aviles
Actualización: 19/08/2018 22:00
Few Clouds
Few Clouds
 Viento del E
Viento: E 9 km/h
Temperatura: 20°C
Rocío: 18°C
Humedad: 88%
Barómetro: 1024 hPa
Clouds: Few Clouds
Visibility: 10 km
Cloud details: Few Clouds 457 m
2018/08/19 20:00 LEAS 192000Z 09005KT 050V140 9999 FEW015 20/18 Q1024 NOSIG
LEBB - Bilbao
Actualización: 19/08/2018 22:00
Few Clouds
Few Clouds
 Viento del varies
Viento: varies 2 km/h
Temperatura: 21°C
Rocío: 18°C
Humedad: 83%
Barómetro: 1024 hPa
Clouds: Few Clouds
Visibility: 10 km
Cloud details: Few Clouds 671 m
2018/08/19 20:00 LEBB 192000Z VRB01KT 9999 FEW022 21/18 Q1024 NOSIG
 
LEBG - Burgos/Villafría
Actualización: 19/08/2018 22:00
Despejado
Despejado
 Viento del NNE
Viento: NNE 20 km/h
Temperatura: 18°C
Rocío: 12°C
Humedad: 68%
Barómetro: 1025 hPa
Clouds: Despejado
Visibility: 10 km
2018/08/19 20:00 LEBG 192000Z AUTO 03011KT 9999 NCD 18/12 Q1025
LELO - Logroño
Actualización: 19/08/2018 22:00
Despejado
Despejado
 Viento del varies
Viento: varies 4 km/h
Temperatura: 23°C
Rocío: 14°C
Humedad: 57%
Barómetro: 1022 hPa
Resumen: Despejado
Visibility: greater than 10 km
2018/08/19 20:00 LELO 192000Z VRB02KT CAVOK 23/14 Q1022
LEPP - Pamplona
Actualización: 19/08/2018 22:00
Few Clouds
Few Clouds
 Viento del NNO
Viento: NNO 28 km/h
Temperatura: 20°C
Rocío: 13°C
Humedad: 64%
Barómetro: 1023 hPa
Clouds: Few Clouds
Visibility: 10 km
Cloud details: Few Clouds 914 m
2018/08/19 20:00 LEPP 192000Z 33015KT 9999 FEW030 20/13 Q1023
 
LESO - San Sebastián
Actualización: 19/08/2018 22:00
Despejado
Despejado
 Viento del varies
Viento: varies 4 km/h
Temperatura: 21°C
Rocío: 17°C
Humedad: 78%
Barómetro: 1023 hPa
Clouds: Despejado
Visibility: 10 km
2018/08/19 20:00 LESO 192000Z AUTO VRB02KT 9999 NCD 21/17 Q1023
LEST - Santiago de Compostela
Actualización: 19/08/2018 22:00
Despejado
Despejado
 Viento del varies
Viento: varies 6 km/h
Temperatura: 23°C
Rocío: 11°C
Humedad: 47%
Barómetro: 1021 hPa
Resumen: Despejado
Visibility: greater than 10 km
2018/08/19 20:00 LEST 192000Z VRB03KT CAVOK 23/11 Q1021 NOSIG
LEVT - Vitoria
Actualización: 19/08/2018 22:00
Few Clouds
Few Clouds
 Viento del N
Viento: N 17 km/h
Temperatura: 19°C
Rocío: 14°C
Humedad: 73%
Barómetro: 1024 hPa
Clouds: Few Clouds
Visibility: 10 km
Cloud details: Few Clouds 762 m
2018/08/19 20:00 LEVT 192000Z 01009KT 340V050 9999 FEW025 19/14 Q1024